Time;durP1;ratioP1;P1;durP2;ratioP2;P2;SDS_P1;SDS_P2;PMS_P1;PMS_P2;Temp;Humidity;BMP_temperature;BMP_pressure;BME280_temperature;BME280_humidity;BME280_pressure;Samples;Min_cycle;Max_cycle;Signal;HPM_P1;HPM_P2
2021/07/22 00:00:27;;;;;;;12.57;9.57;;;15.40;99.90;14.90;97408.00;;;;5081588;28;20187;-69
2021/07/22 00:03:16;;;;;;;8.83;7.50;;;15.30;99.90;15.00;97416.00;;;;5082035;28;20210;-69
2021/07/22 00:06:05;;;;;;;9.63;7.77;;;15.30;99.90;14.80;97413.00;;;;5082007;28;20269;-69
2021/07/22 00:08:55;;;;;;;10.57;7.63;;;15.30;99.90;14.70;97404.00;;;;5066273;28;20200;-69
2021/07/22 00:11:47;;;;;;;12.47;8.73;;;15.20;99.90;14.30;97409.00;;;;5075036;28;20610;-69
2021/07/22 00:14:36;;;;;;;7.67;6.97;;;15.10;99.90;14.10;97411.00;;;;5084279;28;20199;-70
2021/07/22 00:17:25;;;;;;;9.53;8.30;;;14.90;99.90;14.00;97404.00;;;;5084910;28;20245;-69
2021/07/22 00:20:15;;;;;;;10.00;7.53;;;14.80;99.90;13.90;97404.00;;;;5071647;28;20804;-69
2021/07/22 00:23:04;;;;;;;10.37;8.43;;;14.70;99.90;13.70;97400.00;;;;5082024;28;20214;-69
2021/07/22 00:25:54;;;;;;;9.77;8.10;;;14.50;99.90;13.80;97401.00;;;;5081975;28;20740;-69
2021/07/22 00:28:43;;;;;;;10.47;7.60;;;14.40;99.90;14.00;97397.00;;;;5066437;28;20608;-69
2021/07/22 00:31:33;;;;;;;11.20;7.60;;;14.40;99.90;14.10;97398.00;;;;5068800;28;20693;-68
2021/07/22 00:34:21;;;;;;;8.87;7.07;;;14.40;99.90;14.10;97395.00;;;;5069350;28;20219;-69
2021/07/22 00:37:10;;;;;;;11.97;7.47;;;14.40;99.90;14.00;97392.00;;;;5067497;28;20575;-69
2021/07/22 00:39:59;;;;;;;10.47;7.70;;;14.40;99.90;13.90;97393.00;;;;5068723;28;20278;-70
2021/07/22 00:43:05;;;;;;;7.90;6.60;;;14.40;99.90;13.80;97396.00;;;;5087867;28;20203;-69
2021/07/22 00:45:54;;;;;;;8.73;7.63;;;14.30;99.90;13.90;97388.00;;;;5087955;28;20210;-70
2021/07/22 00:48:43;;;;;;;9.03;7.40;;;14.30;99.90;13.80;97394.00;;;;5087448;28;20655;-69
2021/07/22 00:51:32;;;;;;;8.70;7.80;;;14.30;99.90;13.70;97403.00;;;;5094163;28;20199;-70
2021/07/22 00:54:21;;;;;;;10.33;7.17;;;14.20;99.90;13.70;97400.00;;;;5084481;28;20203;-70
2021/07/22 00:57:11;;;;;;;8.43;7.53;;;14.20;99.90;13.40;97383.00;;;;5070010;28;20609;-69
2021/07/22 01:00:02;;;;;;;9.23;7.87;;;14.10;99.90;13.50;97394.00;;;;5067997;28;20219;-67
2021/07/22 01:02:51;;;;;;;8.47;7.50;;;14.20;99.90;13.50;97395.00;;;;5077250;28;20199;-69
2021/07/22 01:05:40;;;;;;;9.03;7.33;;;14.00;99.90;13.40;97387.00;;;;5086182;28;20210;-70
2021/07/22 01:08:29;;;;;;;9.17;7.70;;;13.90;99.90;13.30;97386.00;;;;5072669;28;20277;-69
2021/07/22 01:11:18;;;;;;;11.33;7.27;;;13.90;99.90;13.10;97399.00;;;;5067975;28;20693;-69
2021/07/22 01:14:06;;;;;;;9.33;8.33;;;13.80;99.90;13.10;97393.00;;;;5074938;28;20203;-69
2021/07/22 01:16:57;;;;;;;9.70;7.50;;;13.70;99.90;12.90;97387.00;;;;5070630;28;20698;-70
2021/07/22 01:19:46;;;;;;;8.40;7.13;;;13.60;99.90;12.80;97391.00;;;;5067128;28;20226;-69
2021/07/22 01:22:36;;;;;;;8.47;7.40;;;13.60;99.90;13.10;97385.00;;;;5067439;28;20581;-69
2021/07/22 01:25:26;;;;;;;9.87;8.10;;;13.50;99.90;13.20;97385.00;;;;5067646;28;20200;-69
2021/07/22 01:28:15;;;;;;;15.27;7.87;;;13.60;99.90;13.10;97394.00;;;;5067688;28;20728;-70
2021/07/22 01:31:04;;;;;;;8.63;7.33;;;13.60;99.90;12.90;97379.00;;;;5094049;28;20207;-70
2021/07/22 01:33:54;;;;;;;12.07;8.30;;;13.60;99.90;12.70;97379.00;;;;5066257;28;20215;-69
2021/07/22 01:36:43;;;;;;;10.47;8.13;;;13.40;99.90;12.60;97377.00;;;;5066111;28;20596;-70
2021/07/22 01:39:33;;;;;;;9.57;6.83;;;13.40;99.90;12.60;97382.00;;;;5068391;28;20208;-69
2021/07/22 01:42:22;;;;;;;9.27;7.40;;;13.30;99.90;12.70;97381.00;;;;5066722;28;20207;-69
2021/07/22 01:45:12;;;;;;;8.53;7.67;;;13.30;99.90;12.60;97374.00;;;;5067097;28;20207;-69
2021/07/22 01:48:01;;;;;;;9.23;8.27;;;13.20;99.90;12.40;97379.00;;;;5067831;28;20243;-69
2021/07/22 01:50:50;;;;;;;10.70;8.60;;;13.10;99.90;12.30;97383.00;;;;5095818;28;20203;-69
2021/07/22 01:53:39;;;;;;;9.17;8.27;;;13.10;99.90;12.60;97376.00;;;;5076303;28;20208;-69
2021/07/22 01:56:29;;;;;;;12.07;8.33;;;13.00;99.90;12.60;97379.00;;;;5066064;28;20353;-70
2021/07/22 01:59:18;;;;;;;10.90;8.10;;;13.00;99.90;12.50;97377.00;;;;5070584;28;20748;-69
2021/07/22 02:02:09;;;;;;;9.37;6.97;;;13.00;99.90;12.20;97381.00;;;;5086367;28;20213;-70
2021/07/22 02:04:58;;;;;;;9.47;8.40;;;13.00;99.90;12.10;97379.00;;;;5086735;28;20227;-69
2021/07/22 02:07:47;;;;;;;8.90;7.43;;;12.80;99.90;12.00;97373.00;;;;5066279;28;20231;-70
2021/07/22 02:10:36;;;;;;;10.13;7.87;;;12.80;99.90;12.20;97370.00;;;;5065486;28;20214;-69
2021/07/22 02:13:26;;;;;;;18.20;8.63;;;12.70;99.90;12.30;97375.00;;;;5067039;28;20218;-69
2021/07/22 02:16:15;;;;;;;9.60;7.50;;;12.70;99.90;12.30;97368.00;;;;5065696;28;20204;-69
2021/07/22 02:19:04;;;;;;;9.10;8.13;;;12.70;99.90;12.20;97364.00;;;;5079326;28;20238;-69
2021/07/22 02:21:53;;;;;;;10.10;8.77;;;12.70;99.90;12.20;97375.00;;;;5084833;28;20689;-70
2021/07/22 02:24:42;;;;;;;8.53;7.63;;;12.70;99.90;12.00;97375.00;;;;5086877;28;20199;-69
2021/07/22 02:27:35;;;;;;;10.70;8.43;;;12.70;99.90;12.10;97371.00;;;;5077495;28;20224;-68
2021/07/22 02:30:25;;;;;;;11.03;7.63;;;12.60;99.90;12.10;97374.00;;;;5066342;28;20208;-68
2021/07/22 02:33:14;;;;;;;9.87;7.47;;;12.60;99.90;11.90;97370.00;;;;5066185;28;20577;-69
2021/07/22 02:36:03;;;;;;;13.83;9.40;;;12.60;99.90;11.90;97367.00;;;;5066657;28;20204;-69
2021/07/22 02:38:52;;;;;;;11.83;8.17;;;12.50;99.90;11.90;97369.00;;;;5075322;28;20223;-70
2021/07/22 02:41:41;;;;;;;9.23;7.97;;;12.50;99.90;12.00;97368.00;;;;5080173;28;20215;-69
2021/07/22 02:44:36;;;;;;;10.23;8.00;;;12.50;99.90;12.20;97373.00;;;;5085912;28;20222;-70
2021/07/22 02:47:27;;;;;;;10.27;7.07;;;12.50;99.90;12.10;97377.00;;;;5085192;28;20219;-69
2021/07/22 02:50:16;;;;;;;10.67;8.37;;;12.50;99.90;12.30;97376.00;;;;5085430;28;20665;-69
2021/07/22 02:53:05;;;;;;;8.33;7.53;;;12.60;99.90;12.20;97380.00;;;;5066944;28;20207;-69
2021/07/22 02:55:55;;;;;;;11.60;9.20;;;12.60;99.90;12.00;97379.00;;;;5065112;28;20204;-69
2021/07/22 02:58:44;;;;;;;9.67;8.33;;;12.60;99.90;11.90;97376.00;;;;5086060;28;20230;-69
2021/07/22 03:01:33;;;;;;;7.87;7.10;;;12.60;99.90;12.00;97375.00;;;;5076404;28;20199;-69
2021/07/22 03:04:24;;;;;;;10.40;8.37;;;12.60;99.90;11.80;97376.00;;;;5082757;28;20573;-69
2021/07/22 03:07:12;;;;;;;9.53;8.50;;;12.50;99.90;11.70;97379.00;;;;5079462;28;20220;-70
2021/07/22 03:10:02;;;;;;;11.33;8.50;;;12.40;99.90;11.60;97379.00;;;;5064645;28;20203;-69
2021/07/22 03:12:50;;;;;;;11.07;7.77;;;12.30;99.90;11.70;97378.00;;;;5065397;28;20683;-69
2021/07/22 03:15:39;;;;;;;8.90;8.00;;;12.30;99.90;11.70;97383.00;;;;5066020;28;20222;-69
2021/07/22 03:18:28;;;;;;;9.47;7.70;;;12.20;99.90;11.70;97375.00;;;;5065444;28;20224;-69
2021/07/22 03:21:18;;;;;;;9.77;7.63;;;12.20;99.90;11.80;97376.00;;;;5064501;28;20216;-69
2021/07/22 03:24:07;;;;;;;9.03;7.47;;;12.20;99.90;11.60;97386.00;;;;5065995;28;20200;-69
2021/07/22 03:26:58;;;;;;;9.10;7.23;;;12.20;99.90;11.40;97385.00;;;;5079084;28;20231;-69
2021/07/22 03:29:47;;;;;;;11.67;7.73;;;12.20;99.90;11.40;97379.00;;;;5065874;28;20207;-69
2021/07/22 03:32:37;;;;;;;11.60;9.03;;;12.10;99.90;11.40;97376.00;;;;5064932;28;20208;-69
2021/07/22 03:35:25;;;;;;;10.33;8.57;;;12.00;99.90;11.50;97387.00;;;;5065839;28;20204;-69
2021/07/22 03:38:16;;;;;;;10.50;8.07;;;12.00;99.90;11.40;97375.00;;;;5065340;28;20590;-69
2021/07/22 03:41:05;;;;;;;11.00;8.37;;;12.00;99.90;11.40;97385.00;;;;5064199;28;20215;-69
2021/07/22 03:43:54;;;;;;;11.83;8.20;;;11.60;99.90;11.40;97386.00;;;;5065498;28;20219;-70
2021/07/22 03:46:43;;;;;;;11.03;7.53;;;11.90;99.90;11.30;97392.00;;;;5065398;28;20716;-69
2021/07/22 03:49:32;;;;;;;11.00;8.80;;;11.90;99.90;11.20;97392.00;;;;5065514;28;20235;-69
2021/07/22 03:52:21;;;;;;;9.00;8.10;;;11.90;99.90;11.30;97394.00;;;;5088759;28;20269;-69
2021/07/22 03:55:13;;;;;;;11.33;9.17;;;11.90;99.90;11.30;97392.00;;;;5084790;28;20595;-69
2021/07/22 03:58:03;;;;;;;11.77;8.10;;;11.90;99.90;11.40;97392.00;;;;5066708;28;20269;-69
2021/07/22 04:00:54;;;;;;;10.37;8.63;;;11.90;99.90;11.50;97399.00;;;;5063939;28;20203;-70
2021/07/22 04:03:43;;;;;;;13.57;9.20;;;11.90;99.90;11.50;97392.00;;;;5085099;28;20203;-70
2021/07/22 04:06:35;;;;;;;8.83;7.93;;;12.00;99.90;11.60;97396.00;;;;5088732;28;20337;-70
2021/07/22 04:09:24;;;;;;;10.87;7.97;;;12.00;99.90;11.70;97399.00;;;;5069567;28;20783;-69
2021/07/22 04:12:18;;;;;;;12.23;7.97;;;12.00;99.90;11.90;97404.00;;;;5069124;28;20208;-70
2021/07/22 04:15:08;;;;;;;8.87;7.97;;;12.10;99.90;11.60;97406.00;;;;5087733;28;20207;-70
2021/07/22 04:17:59;;;;;;;11.70;7.97;;;12.10;99.90;11.60;97400.00;;;;5089876;28;20584;-69
2021/07/22 04:20:48;;;;;;;9.63;8.00;;;12.10;99.90;11.50;97396.00;;;;5067956;28;20220;-69
2021/07/22 04:23:37;;;;;;;10.43;7.73;;;12.10;99.90;11.60;97393.00;;;;5068908;28;20689;-70
2021/07/22 04:26:26;;;;;;;10.97;8.27;;;12.10;99.90;11.60;97398.00;;;;5067194;28;20206;-70
2021/07/22 04:29:16;;;;;;;10.43;8.30;;;12.10;99.90;11.60;97403.00;;;;5068813;28;20210;-69
2021/07/22 04:32:06;;;;;;;11.53;8.27;;;12.10;99.90;11.80;97402.00;;;;5068409;28;20204;-69
2021/07/22 04:34:55;;;;;;;11.17;8.27;;;12.20;99.90;11.80;97400.00;;;;5084690;28;20584;-69
2021/07/22 04:37:44;;;;;;;9.63;8.57;;;12.20;99.90;11.90;97407.00;;;;5087352;28;20421;-70
2021/07/22 04:40:33;;;;;;;9.67;8.07;;;12.40;99.90;11.90;97406.00;;;;5067673;28;20231;-70
2021/07/22 04:43:21;;;;;;;10.37;7.70;;;12.30;99.90;12.10;97402.00;;;;5068368;28;20238;-67
2021/07/22 04:46:12;;;;;;;12.50;8.07;;;12.40;99.90;12.20;97400.00;;;;5068196;28;20204;-68
2021/07/22 04:49:01;;;;;;;9.40;8.40;;;12.50;99.90;12.30;97402.00;;;;5086515;28;20237;-70
2021/07/22 04:51:50;;;;;;;10.90;7.83;;;12.50;99.90;12.30;97406.00;;;;5077331;28;20227;-69
2021/07/22 04:54:38;;;;;;;9.57;8.30;;;12.60;99.90;12.40;97401.00;;;;5081993;28;20250;-69
2021/07/22 04:57:27;;;;;;;10.13;7.87;;;12.70;99.90;12.60;97403.00;;;;5087156;28;20635;-69
2021/07/22 05:00:17;;;;;;;12.10;7.80;;;12.80;99.90;12.70;97406.00;;;;5075052;28;20227;-69
2021/07/22 05:03:08;;;;;;;10.70;8.50;;;12.90;99.90;12.80;97395.00;;;;5067964;28;20514;-68
2021/07/22 05:05:57;;;;;;;10.40;8.60;;;13.00;99.90;13.00;97409.00;;;;5087938;28;20207;-70
2021/07/22 05:08:45;;;;;;;8.90;7.97;;;13.10;99.90;13.10;97394.00;;;;5071731;28;20204;-70
2021/07/22 05:11:34;;;;;;;8.20;7.20;;;13.30;99.90;13.10;97400.00;;;;5067590;28;20522;-70
2021/07/22 05:14:23;;;;;;;9.80;8.40;;;13.40;99.90;13.10;97407.00;;;;5078408;28;20209;-69
2021/07/22 05:17:12;;;;;;;11.57;8.50;;;13.40;99.90;13.10;97406.00;;;;5066341;28;20224;-69
2021/07/22 05:20:03;;;;;;;7.87;7.07;;;13.50;99.90;13.40;97394.00;;;;5067283;28;20242;-70
2021/07/22 05:22:52;;;;;;;11.87;8.67;;;13.60;99.90;13.40;97387.00;;;;5087110;28;20199;-70
2021/07/22 05:25:41;;;;;;;10.17;8.07;;;13.70;99.90;13.60;97398.00;;;;5067102;28;20204;-70
2021/07/22 05:28:30;;;;;;;9.77;7.57;;;13.80;99.90;13.90;97386.00;;;;5066237;28;20234;-70
2021/07/22 05:31:19;;;;;;;8.83;7.80;;;13.90;99.90;14.10;97382.00;;;;5085812;28;20221;-71
2021/07/22 05:34:08;;;;;;;11.40;8.43;;;14.10;99.90;14.10;97384.00;;;;5077275;28;20200;-70
2021/07/22 05:36:58;;;;;;;9.70;8.17;;;14.30;99.90;14.10;97383.00;;;;5074068;28;20219;-70
2021/07/22 05:39:47;;;;;;;10.07;8.33;;;14.40;99.90;14.40;97385.00;;;;5069746;28;20216;-69
2021/07/22 05:42:36;;;;;;;12.63;8.77;;;14.50;99.90;14.40;97383.00;;;;5086488;28;20692;-69
2021/07/22 05:45:25;;;;;;;11.37;9.23;;;14.60;99.90;14.70;97389.00;;;;5066583;28;20204;-70
2021/07/22 05:48:14;;;;;;;11.53;9.67;;;14.80;99.90;14.70;97379.00;;;;5067114;28;20227;-70
2021/07/22 05:51:03;;;;;;;11.50;9.37;;;14.90;99.90;15.00;97393.00;;;;5096476;28;20566;-70
2021/07/22 05:53:54;;;;;;;11.77;8.90;;;15.00;99.90;15.30;97385.00;;;;5072943;28;20602;-70
2021/07/22 05:56:42;;;;;;;15.23;10.73;;;15.20;99.90;15.40;97381.00;;;;5065968;28;20219;-69
2021/07/22 05:59:31;;;;;;;13.43;8.80;;;15.40;99.90;15.70;97386.00;;;;5066112;28;20211;-70
2021/07/22 06:02:21;;;;;;;11.80;8.40;;;15.60;99.90;15.90;97373.00;;;;5066060;28;20337;-70
2021/07/22 06:05:11;;;;;;;11.87;8.13;;;15.80;99.90;16.10;97371.00;;;;5085810;28;20215;-69
2021/07/22 06:08:02;;;;;;;14.10;9.37;;;16.00;99.90;16.30;97379.00;;;;5067863;28;20222;-69
2021/07/22 06:10:53;;;;;;;9.17;8.17;;;16.20;99.90;16.50;97377.00;;;;5085375;28;20211;-69
2021/07/22 06:13:42;;;;;;;12.50;8.33;;;16.40;99.90;16.80;97377.00;;;;5087051;28;20669;-70
2021/07/22 06:16:31;;;;;;;16.63;9.23;;;16.60;99.90;16.90;97380.00;;;;5086111;28;20308;-69
2021/07/22 06:19:20;;;;;;;12.67;8.30;;;16.80;99.90;17.10;97385.00;;;;5077259;28;20246;-70
2021/07/22 06:22:09;;;;;;;13.60;8.00;;;17.00;99.90;17.10;97388.00;;;;5066060;28;20720;-70
2021/07/22 06:24:58;;;;;;;13.87;8.20;;;17.20;99.90;17.40;97381.00;;;;5083974;28;20247;-70
2021/07/22 06:27:48;;;;;;;13.67;9.10;;;17.30;99.90;17.30;97377.00;;;;5073849;28;20713;-71
2021/07/22 06:30:37;;;;;;;12.10;9.23;;;17.40;99.90;17.60;97372.00;;;;5074265;28;20573;-70
2021/07/22 06:33:26;;;;;;;16.40;8.50;;;17.60;99.90;17.70;97375.00;;;;5067133;28;20673;-70
2021/07/22 06:36:15;;;;;;;12.23;8.70;;;17.70;99.90;17.60;97372.00;;;;5064474;28;20698;-70
2021/07/22 06:39:05;;;;;;;9.60;7.93;;;17.80;99.90;17.80;97366.00;;;;5084910;28;20726;-70
2021/07/22 06:41:58;;;;;;;11.90;8.17;;;17.90;99.90;18.20;97363.00;;;;5066364;28;20600;-70
2021/07/22 06:44:48;;;;;;;12.23;9.33;;;18.00;99.90;18.50;97365.00;;;;5065776;28;20204;-71
2021/07/22 06:47:41;;;;;;;10.77;7.53;;;18.20;99.90;18.80;97369.00;;;;5066219;28;20228;-70
2021/07/22 06:50:30;;;;;;;14.07;8.57;;;18.50;99.90;19.10;97360.00;;;;5072570;28;20199;-70
2021/07/22 06:53:20;;;;;;;13.07;8.33;;;18.70;99.90;19.30;97360.00;;;;5065201;28;20220;-70
2021/07/22 06:56:10;;;;;;;11.07;7.97;;;18.90;99.90;19.50;97363.00;;;;5085830;28;20207;-71
2021/07/22 06:59:00;;;;;;;10.97;8.00;;;19.10;99.90;19.80;97354.00;;;;5084298;28;20217;-71
2021/07/22 07:01:51;;;;;;;7.87;7.00;;;19.40;99.90;19.90;97353.00;;;;5065020;28;20689;-71
2021/07/22 07:04:40;;;;;;;8.70;6.70;;;19.60;99.90;20.10;97354.00;;;;5066032;28;20204;-70
2021/07/22 07:07:29;;;;;;;10.03;6.83;;;19.80;99.90;20.30;97349.00;;;;5078959;28;20231;-71
2021/07/22 07:10:17;;;;;;;10.93;7.03;;;20.00;99.90;20.50;97353.00;;;;5064799;28;20203;-69
2021/07/22 07:13:06;;;;;;;7.77;6.97;;;20.20;99.90;20.70;97349.00;;;;5066283;28;20573;-70
2021/07/22 07:15:55;;;;;;;7.43;6.10;;;20.40;99.90;20.80;97350.00;;;;5064670;28;20203;-68
2021/07/22 07:18:45;;;;;;;6.60;5.87;;;20.60;99.90;20.90;97345.00;;;;5066518;28;20200;-69
2021/07/22 07:21:38;;;;;;;10.27;5.03;;;20.70;99.90;20.90;97340.00;;;;5071522;28;20761;-68
2021/07/22 07:24:27;;;;;;;8.17;5.03;;;20.80;99.90;20.90;97339.00;;;;5086611;28;20666;-69
2021/07/22 07:27:16;;;;;;;5.47;4.37;;;20.90;99.90;21.30;97343.00;;;;5071056;28;20223;-71
2021/07/22 07:30:07;;;;;;;5.97;4.97;;;21.00;99.90;21.50;97339.00;;;;5092978;28;20203;-71
2021/07/22 07:32:56;;;;;;;6.47;5.73;;;21.10;99.90;21.20;97340.00;;;;5064634;28;20200;-70
2021/07/22 07:35:46;;;;;;;10.03;4.77;;;21.30;99.90;21.40;97339.00;;;;5084974;28;20199;-70
2021/07/22 07:38:35;;;;;;;10.87;5.27;;;21.40;99.90;21.80;97334.00;;;;5067903;28;20658;-68
2021/07/22 07:41:24;;;;;;;9.50;5.80;;;21.40;99.90;22.00;97333.00;;;;5087563;28;20222;-68
2021/07/22 07:44:13;;;;;;;6.53;4.93;;;21.60;99.90;21.90;97329.00;;;;5076829;28;20204;-80
2021/07/22 07:47:02;;;;;;;5.70;5.10;;;21.70;98.40;21.90;97321.00;;;;5073873;28;20227;-74
2021/07/22 07:49:53;;;;;;;7.13;4.87;;;21.80;96.40;22.20;97341.00;;;;5075882;28;20198;-77
2021/07/22 07:52:43;;;;;;;7.07;5.13;;;22.00;96.70;22.20;97337.00;;;;5090573;28;20218;-71
2021/07/22 07:55:32;;;;;;;9.67;5.70;;;22.10;95.90;22.20;97328.00;;;;5089140;28;20253;-75
2021/07/22 07:58:21;;;;;;;7.23;6.07;;;22.20;95.50;22.10;97325.00;;;;5087381;28;20231;-71
2021/07/22 08:01:10;;;;;;;6.37;4.90;;;22.30;94.50;22.30;97329.00;;;;5087242;28;20701;-78
2021/07/22 08:03:59;;;;;;;11.23;5.20;;;22.30;92.30;22.60;97325.00;;;;5074866;28;20598;-71
2021/07/22 08:06:48;;;;;;;6.73;5.03;;;22.40;92.70;22.90;97333.00;;;;5081517;28;20222;-67
2021/07/22 08:09:39;;;;;;;9.37;4.77;;;22.50;92.50;22.80;97328.00;;;;5080086;28;20941;-71
2021/07/22 08:12:28;;;;;;;8.30;5.03;;;22.70;90.90;23.10;97323.00;;;;5085495;28;20203;-69
2021/07/22 08:15:17;;;;;;;6.13;5.13;;;22.60;90.30;23.10;97330.00;;;;5082229;28;20215;-70
2021/07/22 08:18:05;;;;;;;8.07;5.07;;;22.90;88.90;23.30;97321.00;;;;5090410;28;20223;-70
2021/07/22 08:20:54;;;;;;;5.90;4.40;;;23.10;89.40;23.40;97315.00;;;;5088664;28;20231;-69
2021/07/22 08:23:43;;;;;;;9.13;4.70;;;23.20;89.70;23.10;97320.00;;;;5070550;28;20226;-68
2021/07/22 08:26:34;;;;;;;9.60;5.77;;;23.30;85.90;23.30;97316.00;;;;5080395;28;20297;-73
2021/07/22 08:29:22;;;;;;;11.60;5.37;;;23.30;83.90;23.70;97315.00;;;;5086609;28;20368;-71
2021/07/22 08:32:11;;;;;;;6.63;4.93;;;23.40;85.10;24.10;97314.00;;;;5081314;28;20282;-70
2021/07/22 08:35:01;;;;;;;8.40;4.93;;;23.60;86.90;24.00;97309.00;;;;5068312;28;20204;-71
2021/07/22 08:37:50;;;;;;;7.23;5.67;;;23.80;84.40;24.20;97305.00;;;;5068577;28;20650;-69
2021/07/22 08:40:41;;;;;;;9.93;6.50;;;24.00;82.70;24.30;97305.00;;;;5077257;28;20253;-69
2021/07/22 08:43:35;;;;;;;10.50;6.37;;;24.10;82.80;24.30;97314.00;;;;5086869;28;20213;-68
2021/07/22 08:46:24;;;;;;;10.40;5.50;;;24.20;81.00;24.10;97313.00;;;;5091966;28;20207;-67
2021/07/22 08:49:13;;;;;;;6.93;5.10;;;24.20;78.20;24.70;97307.00;;;;5067528;28;20208;-68
2021/07/22 08:52:07;;;;;;;7.67;5.60;;;24.30;81.00;25.00;97310.00;;;;5068032;28;20683;-68
2021/07/22 08:54:57;;;;;;;16.47;7.00;;;24.50;81.20;24.40;97305.00;;;;5075622;28;20207;-68
2021/07/22 08:57:46;;;;;;;8.03;6.00;;;24.60;76.20;24.80;97306.00;;;;5072135;28;20224;-68
2021/07/22 09:00:36;;;;;;;9.57;5.80;;;24.60;76.20;25.00;97302.00;;;;5086798;28;20219;-68
2021/07/22 09:03:27;;;;;;;7.87;6.47;;;24.70;76.80;25.10;97305.00;;;;5077452;28;20200;-68
2021/07/22 09:06:17;;;;;;;13.37;5.87;;;24.90;77.80;25.30;97297.00;;;;5079340;28;20290;-68
2021/07/22 09:09:13;;;;;;;8.70;5.80;;;25.00;77.00;25.50;97306.00;;;;5067515;28;20226;-68
2021/07/22 09:12:03;;;;;;;7.37;5.50;;;25.20;76.70;25.50;97300.00;;;;5067454;28;20202;-68
2021/07/22 09:14:58;;;;;;;7.03;5.73;;;25.30;74.10;26.00;97297.00;;;;5068447;28;20197;-68
2021/07/22 09:18:22;;;;;;;8.07;5.33;;;25.50;75.50;25.70;97288.00;;;;5066128;28;20226;-68
2021/07/22 09:21:22;;;;;;;8.70;5.50;;;25.60;74.20;25.60;97304.00;;;;5090285;28;21019;-68
2021/07/22 09:24:12;;;;;;;7.53;5.87;;;25.70;72.50;25.50;97302.00;;;;5067522;28;20215;-68
2021/07/22 09:27:01;;;;;;;8.43;5.40;;;25.60;72.70;25.80;97304.00;;;;5087184;28;21013;-68
2021/07/22 09:29:58;;;;;;;8.93;6.43;;;25.70;73.50;25.80;97295.00;;;;5086141;28;20565;-69
2021/07/22 09:32:48;;;;;;;9.07;6.43;;;25.70;73.80;26.10;97295.00;;;;5079310;28;20560;-68
2021/07/22 09:35:39;;;;;;;8.83;6.47;;;25.80;73.40;25.90;97288.00;;;;5069922;28;20212;-68
2021/07/22 09:38:28;;;;;;;8.53;5.53;;;25.90;71.60;26.60;97294.00;;;;5082196;28;20228;-68
2021/07/22 09:41:21;;;;;;;8.17;6.80;;;26.10;72.70;26.90;97293.00;;;;5088817;28;20223;-68
2021/07/22 09:44:28;;;;;;;7.60;5.83;;;26.30;72.50;27.30;97295.00;;;;5089616;28;20205;-69
2021/07/22 09:47:28;;;;;;;8.10;6.00;;;26.60;73.00;26.60;97316.00;;;;5080211;28;20841;-68
2021/07/22 09:50:19;;;;;;;6.83;6.13;;;26.70;68.60;26.60;97286.00;;;;5088721;28;20707;-68
2021/07/22 09:53:11;;;;;;;8.60;6.57;;;26.70;67.40;26.70;97286.00;;;;5086427;28;20579;-68
2021/07/22 09:56:00;;;;;;;8.77;6.13;;;26.60;67.70;26.20;97294.00;;;;5070729;28;20204;-67
2021/07/22 09:58:49;;;;;;;7.83;5.83;;;26.50;68.90;27.20;97270.00;;;;5082042;28;20203;-70
2021/07/22 10:01:45;;;;;;;11.23;6.57;;;26.70;69.50;26.50;97300.00;;;;5082634;28;20714;-69
2021/07/22 10:04:36;;;;;;;9.10;5.90;;;26.70;67.30;26.10;97300.00;;;;5078683;28;20209;-69
2021/07/22 10:07:26;;;;;;;7.13;6.17;;;26.50;67.10;26.90;97264.00;;;;5085099;28;20343;-69
2021/07/22 10:10:17;;;;;;;9.97;6.07;;;26.50;68.90;27.60;97270.00;;;;5082277;28;20219;-69
2021/07/22 10:13:07;;;;;;;10.43;6.37;;;26.80;69.30;27.00;97291.00;;;;5068903;28;20429;-69
2021/07/22 10:15:58;;;;;;;7.07;6.13;;;27.00;67.10;27.20;97258.00;;;;5079325;28;20205;-69
2021/07/22 10:18:48;;;;;;;9.13;6.50;;;27.10;67.10;27.80;97254.00;;;;5079512;28;20207;-71
2021/07/22 10:21:37;;;;;;;9.20;6.33;;;27.30;67.20;28.10;97264.00;;;;5075728;28;20590;-70
2021/07/22 10:24:28;;;;;;;8.13;6.67;;;27.50;65.10;26.90;97249.00;;;;5081223;28;20379;-73
2021/07/22 10:27:19;;;;;;;9.20;5.47;;;27.50;63.30;27.90;97246.00;;;;5064843;28;20228;-72
2021/07/22 10:30:10;;;;;;;6.97;5.80;;;27.60;65.40;28.00;97238.00;;;;5079719;28;20227;-70
2021/07/22 10:33:02;;;;;;;14.20;7.00;;;27.70;62.80;28.30;97233.00;;;;5066017;28;20208;-71
2021/07/22 10:35:53;;;;;;;13.87;6.50;;;27.80;62.60;28.30;97230.00;;;;5073214;28;20206;-73
2021/07/22 10:38:44;;;;;;;10.00;6.33;;;28.00;64.10;27.90;97232.00;;;;5073577;28;20392;-72
2021/07/22 10:41:38;;;;;;;10.17;5.93;;;28.10;62.60;28.10;97228.00;;;;5066225;28;20624;-71
2021/07/22 10:44:33;;;;;;;11.40;7.83;;;28.10;62.30;28.80;97225.00;;;;5065949;28;20212;-72
2021/07/22 10:47:21;;;;;;;10.70;6.60;;;28.20;62.90;29.00;97227.00;;;;5073644;28;20226;-70
2021/07/22 10:50:10;;;;;;;10.30;6.73;;;28.40;63.40;29.60;97220.00;;;;5081887;28;20202;-73
2021/07/22 10:53:02;;;;;;;8.30;6.67;;;28.70;64.30;29.50;97221.00;;;;5065960;28;20205;-73
2021/07/22 10:55:51;;;;;;;8.33;5.87;;;28.90;62.60;29.90;97223.00;;;;5064021;28;20232;-71
2021/07/22 10:58:57;;;;;;;7.20;6.17;;;29.20;61.20;29.00;97214.00;;;;5086395;28;20702;-72
2021/07/22 11:02:00;;;;;;;11.80;7.47;;;29.40;59.60;29.00;97216.00;;;;5073788;28;20219;-71
2021/07/22 11:04:50;;;;;;;10.37;6.93;;;29.30;59.40;28.90;97214.00;;;;5075867;28;20579;-73
2021/07/22 11:07:39;;;;;;;7.73;6.57;;;29.10;57.50;29.40;97220.00;;;;5075811;28;20225;-73
2021/07/22 11:10:55;;;;;;;8.53;7.23;;;29.20;59.10;29.90;97212.00;;;;5076006;28;20207;-72
2021/07/22 11:13:47;;;;;;;25.30;17.37;;;29.30;59.50;29.70;97210.00;;;;5080263;28;20200;-71
2021/07/22 11:17:01;;;;;;;7.90;7.10;;;29.40;59.20;29.70;97196.00;;;;5075332;28;20221;-71
2021/07/22 11:20:34;;;;;;;8.67;6.90;;;29.50;58.40;29.50;97197.00;;;;5073897;28;20205;-75
2021/07/22 11:23:24;;;;;;;11.10;7.43;;;29.60;55.90;30.70;97195.00;;;;5066243;28;20231;-74
2021/07/22 11:26:23;;;;;;;8.10;7.00;;;29.80;58.00;31.00;97190.00;;;;5075919;28;20224;-74
2021/07/22 11:29:23;;;;;;;10.07;7.45;;;30.10;58.40;31.10;97200.00;;;;5085316;28;20281;-74
2021/07/22 11:32:13;;;;;;;10.02;6.72;;;30.30;57.80;31.00;97186.00;;;;5083923;28;20202;-76
2021/07/22 11:35:07;;;;;;;16.08;7.20;;;30.50;55.90;30.90;97188.00;;;;5085443;28;20221;-77
2021/07/22 11:37:57;;;;;;;9.32;7.10;;;30.70;55.60;30.90;97177.00;;;;5084997;28;20228;-79
2021/07/22 11:40:46;;;;;;;8.05;6.93;;;30.80;55.80;31.10;97180.00;;;;5075131;28;20236;-75
2021/07/22 11:43:37;;;;;;;8.82;6.25;;;30.80;54.40;29.10;97167.00;;;;5083592;28;20201;-75
2021/07/22 11:46:45;;;;;;;10.90;7.88;;;30.60;55.40;29.80;97166.00;;;;5082200;28;20255;-78
2021/07/22 11:49:36;;;;;;;7.97;6.75;;;30.30;53.80;30.80;97169.00;;;;5092081;28;20581;-75
2021/07/22 11:52:27;;;;;;;12.77;6.78;;;30.20;54.60;31.00;97166.00;;;;5080931;28;20213;-78
2021/07/22 11:55:16;;;;;;;7.40;6.63;;;30.40;55.40;31.50;97165.00;;;;5065312;28;20197;-76
2021/07/22 11:58:05;;;;;;;12.45;8.23;;;30.70;56.60;30.10;97155.00;;;;5065665;28;20232;-76
2021/07/22 12:00:56;;;;;;;8.73;6.82;;;30.80;54.70;29.10;97130.00;;;;5065699;28;20245;-77
2021/07/22 12:03:47;;;;;;;9.35;6.57;;;30.60;53.80;28.30;97132.00;;;;5066349;28;20212;-78
2021/07/22 12:06:38;;;;;;;9.75;7.22;;;29.80;54.10;30.30;97133.00;;;;5079656;28;20269;-75
2021/07/22 12:09:27;;;;;;;11.38;7.07;;;29.70;56.10;31.00;97135.00;;;;5066444;28;20685;-75
2021/07/22 12:12:24;;;;;;;9.30;7.38;;;30.00;56.20;31.40;97137.00;;;;5072255;28;20580;-74
2021/07/22 12:15:13;;;;;;;8.57;7.43;;;30.40;55.60;31.00;97125.00;;;;5084472;28;20191;-75
2021/07/22 12:18:03;;;;;;;8.25;7.22;;;30.80;54.50;31.70;97119.00;;;;5081083;28;20233;-77
2021/07/22 12:20:52;;;;;;;8.32;7.18;;;30.90;54.30;32.20;97120.00;;;;5076232;28;20247;-75
2021/07/22 12:23:42;;;;;;;8.00;7.20;;;31.20;55.00;32.40;97124.00;;;;5082823;28;20202;-76
2021/07/22 12:26:39;;;;;;;9.48;6.80;;;31.50;55.50;32.70;97103.00;;;;5078904;28;20787;-76
2021/07/22 12:29:28;;;;;;;9.27;7.55;;;31.70;51.20;33.00;97166.00;;;;5088882;28;20204;-76
2021/07/22 12:32:18;;;;;;;7.97;7.18;;;31.80;53.30;31.00;97112.00;;;;5065013;28;20202;-74